Indianapolis, Indiana
Traffic Map
Current Weather Conditions
Indianapolis, Indiana
Broken Clouds
Broken Clouds

Feels Like: -2°
Wind Chill: -2° Ceiling: 24000
Heat Index: Visibility: 8mi
Dew Point: -3° Wind: 7mph
Humidity: 73% Direction: 100° (E)
Pressure: 30.2in Gusts: 0mph
Raw Report DataKIND 211754Z 10006KT 8SM BKN240 01/M03 A3020 RMK AO2 SLP236 I6000 T00111033 10011 21067 58026
Traffic Incident Summary
Active as of:
Severity:
Category:
InformationThere was an issue retrieving the traffic information for this location. Please try a different location or try again shortly.
Advertisements
Track Severe Weather on mobile